Pagrindinis puslapis
METAR-TAF:

METAR-TAF

Oro uostai :

Ponapė, Mikronezija

platuma: 06-59N, ilguma: 158-12E, Aukštis: 2 m

Dabartinis oras

Ataskaita buvo paskelbta 18 valandos ir 12 minutes, ne 04:50 UTC
Vėjas 8 kt iš Rytų/Šiaurės Rytų
Temperatūra 31°C
Drėgmė 71%
Slėgis 1012 hPa
Matomumas: 24.1 km
Išsisklaidę debesys ne aukštis 1800 ft, aukštai iškilę kamuoliniai debesys.
Su prošvaistėmis ne aukštis 13000 ft
Apsiniaukę ne aukštis 30000 ft

METAR: PTPN 300450Z 07008KT 15SM SCT018TCU BKN130 OVC300 31/25 A2987 RMK TCU ALQDS LAST

Laikas: 10:02 (23:02 UTC)

Prognozė

Ataskaita buvo paskelbta 17 valandos ir 42 minutes, ne 05:20 UTC
Prognozė galioja nuo 30 metu 06 UTC su 31 metu 06 UTC
Vėjas 10 kt iš Rytų
Matomumas: 10 km
Išsisklaidę debesys ne aukštis 1800 ft
Su prošvaistėmis ne aukštis 12000 ft
Liūtis kaimynystėje

TAF: PTPN 300520Z 3006/3106 09010KT P6SM VCSH SCT018 BKN120

Orai ataskaitas ir orų prognozės (METAR, TAF).

turimą stotys yra geltonos ir raudonos taškus žemėlapyje.

Perkelti pele per norėdami pamatyti stoties vardą.

Tada spustelėkite, norėdami matyti oro stebėjimo ir prognozės.

Norėdami pakeisti žemėlapį: spustelėkite ant žalios mygtukų su juodo kryžiaus žemyn,; žalią mygtuką su brūkšneliu, jei norite nutolinti; arba žalių rodyklių gretimoms žemėlapius.


METAR-TAF: